Time;durP1;ratioP1;P1;durP2;ratioP2;P2;SDS_P1;SDS_P2;PMS_P1;PMS_P2;Temp;Humidity;BMP_temperature;BMP_pressure;BME280_temperature;BME280_humidity;BME280_pressure;Samples;Min_cycle;Max_cycle;Signal;HPM_P1;HPM_P2
2022/12/01 00:01:27;;;;;;;51.50;46.90;;;;;;;0.09;96.66;98837.35;104886;1329;22260;-81
2022/12/01 00:03:56;;;;;;;51.50;47.10;;;;;;;0.05;96.55;98833.95;104775;1328;22226;-82
2022/12/01 00:06:24;;;;;;;49.00;44.60;;;;;;;0.02;96.63;98831.64;104727;1330;22885;-82
2022/12/01 00:11:47;;;;;;;47.70;43.40;;;;;;;0.04;96.48;98829.06;104736;1329;22856;-82
2022/12/01 00:14:15;;;;;;;46.40;41.90;;;;;;;0.03;96.43;98826.34;104751;1321;22181;-82
2022/12/01 00:16:43;;;;;;;48.40;44.20;;;;;;;-0.00;96.38;98822.14;104850;1330;22245;-82
2022/12/01 00:19:12;;;;;;;46.10;42.00;;;;;;;0.01;96.63;98824.14;104775;1328;22090;-82
2022/12/01 00:21:39;;;;;;;47.60;43.30;;;;;;;-0.02;96.36;98822.30;104855;1330;22277;-81
2022/12/01 00:24:09;;;;;;;46.60;42.40;;;;;;;-0.07;96.29;98824.64;104827;1322;22198;-81
2022/12/01 00:26:37;;;;;;;43.00;39.20;;;;;;;-0.09;96.26;98825.05;104959;1315;22236;-82
2022/12/01 00:29:05;;;;;;;44.30;40.30;;;;;;;-0.09;96.49;98824.86;104730;1329;22204;-82
2022/12/01 00:31:33;;;;;;;40.50;36.80;;;;;;;-0.03;96.31;98825.54;104728;1329;22801;-81
2022/12/01 00:34:02;;;;;;;40.40;36.90;;;;;;;-0.02;96.36;98831.03;104691;1329;22209;-81
2022/12/01 00:36:38;;;;;;;44.90;40.90;;;;;;;0.00;96.39;98834.45;104972;1320;22450;-82
2022/12/01 00:39:07;;;;;;;45.90;41.90;;;;;;;-0.01;96.46;98833.18;104730;1329;22211;-81
2022/12/01 00:41:35;;;;;;;48.50;44.00;;;;;;;-0.01;96.43;98833.16;105245;1319;22210;-82
2022/12/01 00:44:03;;;;;;;44.60;40.60;;;;;;;-0.04;96.32;98834.98;104851;1328;22285;-81
2022/12/01 00:46:31;;;;;;;45.80;41.60;;;;;;;-0.04;96.38;98832.21;105287;1319;22233;-83
2022/12/01 00:49:04;;;;;;;48.40;44.20;;;;;;;-0.02;96.42;98833.69;105297;1318;22163;-82
2022/12/01 00:51:32;;;;;;;43.00;39.20;;;;;;;0.04;96.38;98832.69;104875;1329;22244;-84
2022/12/01 00:54:00;;;;;;;42.80;39.00;;;;;;;0.05;96.32;98830.98;104878;1328;22873;-80
2022/12/01 00:56:28;;;;;;;48.20;43.80;;;;;;;0.06;96.37;98831.87;105271;1319;22753;-81
2022/12/01 00:58:56;;;;;;;49.50;45.10;;;;;;;0.07;96.55;98831.63;104943;1314;22240;-82
2022/12/01 01:01:24;;;;;;;46.30;42.20;;;;;;;0.06;96.68;98833.02;104721;1324;22255;-82
2022/12/01 01:03:52;;;;;;;46.50;42.40;;;;;;;0.03;96.53;98833.75;104838;1329;22835;-81
2022/12/01 01:06:20;;;;;;;49.20;44.90;;;;;;;0.05;96.45;98834.36;105254;1319;22934;-84
2022/12/01 01:08:48;;;;;;;45.90;41.80;;;;;;;0.09;96.64;98829.27;104702;1329;22250;-82
2022/12/01 01:11:16;;;;;;;41.70;37.80;;;;;;;0.13;96.62;98823.90;105276;1319;22237;-82
2022/12/01 01:13:44;;;;;;;46.40;42.10;;;;;;;0.17;96.54;98821.36;104749;1329;22203;-82
2022/12/01 01:16:13;;;;;;;49.40;45.00;;;;;;;0.18;96.41;98816.02;104832;1314;22269;-82
2022/12/01 01:18:41;;;;;;;45.20;41.20;;;;;;;0.16;96.49;98815.05;105284;1319;22261;-82
2022/12/01 01:21:12;;;;;;;46.90;42.80;;;;;;;0.16;96.70;98810.40;104875;1329;22209;-83
2022/12/01 01:23:41;;;;;;;43.70;39.50;;;;;;;0.15;96.53;98808.29;104844;1328;22188;-82
2022/12/01 01:26:14;;;;;;;40.60;36.80;;;;;;;0.15;96.49;98809.02;104773;1324;22407;-82
2022/12/01 01:28:45;;;;;;;43.90;39.70;;;;;;;0.17;96.60;98812.35;105297;1308;23368;-81
2022/12/01 01:31:16;;;;;;;45.60;41.30;;;;;;;0.18;96.68;98813.45;105277;1314;23127;-84
2022/12/01 01:33:44;;;;;;;45.10;41.00;;;;;;;0.16;96.64;98812.31;105092;1320;22247;-83
2022/12/01 01:36:14;;;;;;;48.50;43.90;;;;;;;0.13;96.67;98809.54;104738;1329;22208;-82
2022/12/01 01:38:43;;;;;;;46.40;42.00;;;;;;;0.14;96.68;98805.43;104958;1308;22183;-83
2022/12/01 01:41:11;;;;;;;44.40;40.40;;;;;;;0.20;97.02;98801.04;104720;1329;22275;-82
2022/12/01 01:43:39;;;;;;;44.70;40.80;;;;;;;0.26;96.85;98796.45;104648;1330;22921;-85
2022/12/01 01:46:10;;;;;;;46.00;41.80;;;;;;;0.28;96.65;98792.38;105342;1319;22071;-82
2022/12/01 01:48:40;;;;;;;46.10;42.10;;;;;;;0.25;96.73;98790.91;105312;1311;22086;-82
2022/12/01 01:51:10;;;;;;;45.20;41.20;;;;;;;0.19;96.73;98784.02;105306;1318;22773;-81
2022/12/01 01:53:39;;;;;;;40.30;36.60;;;;;;;0.21;96.72;98792.64;104838;1330;22293;-83
2022/12/01 01:56:07;;;;;;;43.40;39.30;;;;;;;0.25;96.70;98790.52;105266;1318;22201;-82
2022/12/01 01:58:38;;;;;;;42.80;39.10;;;;;;;0.26;96.60;98792.61;104781;1330;22231;-82
2022/12/01 02:01:06;;;;;;;41.80;38.20;;;;;;;0.27;96.75;98795.64;104752;1322;22243;-81
2022/12/01 02:03:37;;;;;;;44.60;40.60;;;;;;;0.28;96.68;98791.64;104827;1329;22882;-82
2022/12/01 02:06:07;;;;;;;42.90;39.10;;;;;;;0.24;96.59;98791.41;105259;1313;22687;-81
2022/12/01 02:08:37;;;;;;;38.80;35.10;;;;;;;0.21;96.67;98792.73;104977;1320;22160;-81
2022/12/01 02:11:34;;;;;;;37.30;33.40;;;;;;;0.21;96.72;98789.95;104719;1329;22208;-82
2022/12/01 02:14:06;;;;;;;37.60;34.30;;;;;;;0.22;96.71;98784.77;104872;1315;23028;-82
2022/12/01 02:17:04;;;;;;;39.90;36.20;;;;;;;0.24;96.75;98784.88;104854;1322;22210;-81
2022/12/01 02:20:01;;;;;;;40.70;37.20;;;;;;;0.22;96.69;98790.80;104454;1332;22347;-82
2022/12/01 02:23:10;;;;;;;36.50;33.40;;;;;;;0.21;96.95;98789.55;104524;1331;22353;-82
2022/12/01 02:26:02;;;;;;;33.30;30.40;;;;;;;0.22;96.75;98796.20;104577;1317;22294;-82
2022/12/01 02:28:45;;;;;;;32.00;28.90;;;;;;;0.22;96.59;98797.36;104882;1314;22355;-82
2022/12/01 02:31:21;;;;;;;35.00;31.90;;;;;;;0.23;96.82;98795.52;104573;1331;22204;-82
2022/12/01 02:33:58;;;;;;;34.70;31.10;;;;;;;0.23;96.84;98794.02;104771;1322;22215;-82
2022/12/01 02:36:38;;;;;;;33.90;30.60;;;;;;;0.21;96.94;98793.05;104503;1332;23046;-82
2022/12/01 02:39:33;;;;;;;31.30;28.60;;;;;;;0.19;96.84;98791.05;104793;1322;22178;-82
2022/12/01 02:42:47;;;;;;;34.60;31.60;;;;;;;0.21;96.83;98791.30;104434;1327;22266;-82
2022/12/01 02:45:09;;;;;;;31.20;28.50;;;;;;;0.26;97.01;98791.19;104656;1330;22878;-82
2022/12/01 02:47:40;;;;;;;33.00;30.00;;;;;;;0.29;96.86;98787.84;104684;1329;22455;-80
2022/12/01 02:50:10;;;;;;;32.60;29.80;;;;;;;0.31;96.96;98784.85;104813;1328;22191;-81
2022/12/01 02:52:40;;;;;;;35.20;32.30;;;;;;;0.30;96.97;98786.09;104865;1330;22094;-81
2022/12/01 02:55:08;;;;;;;33.50;30.70;;;;;;;0.28;96.91;98793.20;105272;1307;22157;-81
2022/12/01 02:57:36;;;;;;;31.90;28.20;;;;;;;0.28;96.91;98794.86;105265;1318;22308;-81
2022/12/01 03:00:05;;;;;;;33.30;30.30;;;;;;;0.31;96.87;98788.83;104823;1323;22224;-81
2022/12/01 03:02:42;;;;;;;34.40;31.40;;;;;;;0.35;96.91;98790.83;104743;1329;22261;-81
2022/12/01 03:05:16;;;;;;;36.30;33.30;;;;;;;0.35;96.90;98787.32;105248;1319;22188;-81
2022/12/01 03:08:07;;;;;;;36.50;33.30;;;;;;;0.33;96.84;98790.42;104844;1328;22230;-81
2022/12/01 03:10:51;;;;;;;32.50;29.70;;;;;;;0.29;96.81;98784.14;104752;1330;22358;-81
2022/12/01 03:13:43;;;;;;;30.80;28.10;;;;;;;0.26;97.01;98781.08;105255;1319;21979;-81
2022/12/01 03:16:19;;;;;;;31.20;28.50;;;;;;;0.29;96.81;98773.70;105078;1320;22225;-82
2022/12/01 03:19:04;;;;;;;26.90;24.60;;;;;;;0.29;97.03;98771.69;105080;1308;22874;-84
2022/12/01 03:21:39;;;;;;;35.60;32.60;;;;;;;0.28;96.99;98763.91;104818;1330;23118;-82
2022/12/01 03:24:15;;;;;;;38.70;35.30;;;;;;;0.27;97.03;98767.21;105089;1320;22184;-81
2022/12/01 03:26:47;;;;;;;36.60;33.50;;;;;;;0.23;97.17;98763.59;105269;1319;22185;-82
2022/12/01 03:29:20;;;;;;;35.70;32.60;;;;;;;0.27;97.26;98760.90;104872;1330;22224;-83
2022/12/01 03:31:55;;;;;;;32.40;29.60;;;;;;;0.33;97.27;98752.95;105259;1315;22909;-82
2022/12/01 03:34:35;;;;;;;36.30;33.00;;;;;;;0.39;97.04;98752.06;104971;1320;22128;-82
2022/12/01 03:37:08;;;;;;;36.40;33.30;;;;;;;0.42;97.06;98753.33;105104;1308;22699;-82
2022/12/01 03:39:38;;;;;;;37.70;34.50;;;;;;;0.42;97.16;98751.36;104737;1329;22242;-82
2022/12/01 03:42:20;;;;;;;34.60;31.50;;;;;;;0.41;97.30;98754.95;105003;1319;22188;-82
2022/12/01 03:44:52;;;;;;;31.20;28.40;;;;;;;0.43;97.02;98753.63;105266;1314;22202;-82
2022/12/01 03:47:28;;;;;;;30.40;27.80;;;;;;;0.45;97.01;98755.71;104870;1330;22277;-83
2022/12/01 03:49:57;;;;;;;32.10;29.30;;;;;;;0.48;96.95;98758.02;105245;1319;22247;-83
2022/12/01 03:52:34;;;;;;;32.80;30.00;;;;;;;0.50;97.07;98752.98;105015;1320;22249;-83
2022/12/01 03:55:23;;;;;;;29.00;26.60;;;;;;;0.48;96.74;98753.36;105268;1319;22189;-83
2022/12/01 03:58:12;;;;;;;26.90;24.50;;;;;;;0.47;96.79;98755.29;104970;1320;22250;-83
2022/12/01 04:00:40;;;;;;;28.10;25.70;;;;;;;0.48;96.71;98754.42;104757;1329;23030;-82
2022/12/01 04:03:17;;;;;;;29.80;27.20;;;;;;;0.53;96.84;98748.23;104873;1328;22325;-83
2022/12/01 04:05:45;;;;;;;28.50;26.00;;;;;;;0.56;96.71;98748.58;104702;1329;22194;-83
2022/12/01 04:08:13;;;;;;;30.40;27.90;;;;;;;0.56;96.84;98744.30;105270;1316;22209;-82
2022/12/01 04:10:41;;;;;;;29.60;27.00;;;;;;;0.54;96.78;98748.31;104871;1322;22198;-84
2022/12/01 04:13:15;;;;;;;29.70;26.90;;;;;;;0.52;96.80;98745.91;105278;1319;22176;-83
2022/12/01 04:15:43;;;;;;;28.50;25.90;;;;;;;0.54;96.70;98740.36;104878;1329;22739;-83
2022/12/01 04:18:11;;;;;;;27.60;24.90;;;;;;;0.55;96.66;98737.85;104859;1328;22221;-83
2022/12/01 04:20:42;;;;;;;30.40;27.70;;;;;;;0.57;96.75;98738.88;105299;1319;22189;-83
2022/12/01 04:23:09;;;;;;;28.60;26.00;;;;;;;0.58;96.85;98736.79;104882;1330;23006;-82
2022/12/01 04:25:37;;;;;;;28.80;26.40;;;;;;;0.57;96.80;98736.38;104990;1315;22163;-82
2022/12/01 04:28:05;;;;;;;30.90;28.00;;;;;;;0.54;96.47;98740.27;104889;1328;22208;-82
2022/12/01 04:30:33;;;;;;;27.90;25.50;;;;;;;0.53;96.50;98740.81;105104;1315;22072;-83
2022/12/01 04:33:01;;;;;;;26.80;24.50;;;;;;;0.56;96.50;98738.67;104849;1311;22249;-82
2022/12/01 04:35:29;;;;;;;29.50;27.00;;;;;;;0.59;96.39;98740.11;105293;1319;22095;-84
2022/12/01 04:37:58;;;;;;;24.90;22.90;;;;;;;0.59;96.37;98738.78;104700;1330;22101;-82
2022/12/01 04:40:26;;;;;;;27.10;24.80;;;;;;;0.56;96.19;98739.73;104724;1329;22274;-83
2022/12/01 04:42:54;;;;;;;28.90;26.50;;;;;;;0.53;96.22;98737.63;104867;1330;22192;-83
2022/12/01 04:45:22;;;;;;;25.50;23.30;;;;;;;0.52;96.08;98737.80;105049;1319;22261;-83
2022/12/01 04:47:53;;;;;;;23.90;21.60;;;;;;;0.53;96.16;98739.46;105283;1312;22186;-83
2022/12/01 04:50:21;;;;;;;25.60;23.50;;;;;;;0.53;96.25;98736.11;105250;1308;22254;-83
2022/12/01 04:52:49;;;;;;;24.60;22.60;;;;;;;0.54;96.28;98738.00;105292;1319;22148;-83
2022/12/01 04:55:17;;;;;;;26.00;23.50;;;;;;;0.54;95.90;98739.08;104765;1330;23053;-81
2022/12/01 04:57:45;;;;;;;24.60;22.50;;;;;;;0.50;96.03;98740.76;105286;1318;22178;-83
2022/12/01 05:00:13;;;;;;;24.30;22.10;;;;;;;0.50;96.07;98745.20;104748;1329;22233;-82
2022/12/01 05:02:42;;;;;;;22.20;20.10;;;;;;;0.49;95.99;98743.64;104956;1320;22159;-84
2022/12/01 05:05:11;;;;;;;24.60;22.50;;;;;;;0.51;96.03;98746.50;104819;1330;22221;-82
2022/12/01 05:07:39;;;;;;;25.70;23.50;;;;;;;0.53;96.23;98747.55;104976;1319;22261;-83
2022/12/01 05:10:07;;;;;;;29.60;27.10;;;;;;;0.54;96.17;98752.64;105279;1319;22082;-83
2022/12/01 05:12:36;;;;;;;26.80;24.20;;;;;;;0.54;96.10;98754.44;104854;1328;22184;-84
2022/12/01 05:15:04;;;;;;;23.70;21.70;;;;;;;0.55;96.01;98756.42;104845;1328;22201;-83
2022/12/01 05:17:32;;;;;;;24.00;22.00;;;;;;;0.57;96.01;98753.67;104852;1327;22710;-81
2022/12/01 05:22:57;;;;;;;26.80;24.50;;;;;;;0.56;95.81;98747.90;104885;1314;23050;-81
2022/12/01 05:25:33;;;;;;;28.70;26.30;;;;;;;0.51;96.05;98754.33;104756;1329;22204;-81
2022/12/01 05:28:01;;;;;;;27.20;24.50;;;;;;;0.50;95.96;98748.38;105260;1319;22181;-82
2022/12/01 05:30:29;;;;;;;25.50;23.30;;;;;;;0.50;95.73;98747.11;104867;1330;22245;-82
2022/12/01 05:32:57;;;;;;;24.80;22.70;;;;;;;0.51;96.02;98743.92;104823;1321;22202;-82
2022/12/01 05:35:25;;;;;;;29.00;26.60;;;;;;;0.54;96.01;98745.87;105278;1320;22186;-81
2022/12/01 05:37:53;;;;;;;26.20;23.90;;;;;;;0.51;95.87;98746.01;104769;1329;22241;-84
2022/12/01 05:40:21;;;;;;;26.40;24.00;;;;;;;0.49;95.57;98743.73;104884;1330;22976;-84
2022/12/01 05:42:49;;;;;;;26.40;24.10;;;;;;;0.45;95.59;98754.48;104728;1325;22114;-84
2022/12/01 05:45:17;;;;;;;26.20;23.90;;;;;;;0.45;95.70;98749.83;104958;1319;22362;-85
2022/12/01 05:47:45;;;;;;;24.70;22.60;;;;;;;0.49;95.84;98754.25;104990;1309;22170;-84
2022/12/01 05:50:13;;;;;;;26.00;23.80;;;;;;;0.51;95.83;98754.73;104884;1328;23030;-85
2022/12/01 05:52:41;;;;;;;27.30;25.00;;;;;;;0.50;95.80;98752.34;104757;1330;22192;-83
2022/12/01 05:55:09;;;;;;;26.90;24.30;;;;;;;0.51;95.66;98752.26;104853;1320;22282;-85
2022/12/01 05:57:37;;;;;;;26.10;23.80;;;;;;;0.50;95.64;98755.64;104994;1319;22188;-87
2022/12/01 06:00:07;;;;;;;27.10;24.60;;;;;;;0.49;95.84;98763.31;104856;1321;22235;-83
2022/12/01 06:02:39;;;;;;;27.00;24.70;;;;;;;0.53;95.77;98766.68;104854;1328;22207;-82
2022/12/01 06:05:08;;;;;;;27.50;25.10;;;;;;;0.55;95.90;98770.01;105290;1319;22235;-87
2022/12/01 06:07:38;;;;;;;30.60;27.90;;;;;;;0.59;95.75;98773.70;104661;1330;22943;-88
2022/12/01 06:10:08;;;;;;;28.70;26.20;;;;;;;0.57;95.79;98775.59;104876;1330;22230;-86
2022/12/01 06:12:37;;;;;;;27.60;25.00;;;;;;;0.54;95.60;98775.69;104999;1313;23064;-87
2022/12/01 06:15:06;;;;;;;26.60;24.10;;;;;;;0.51;95.57;98778.08;104766;1329;22188;-91
2022/12/01 06:17:34;;;;;;;27.00;24.60;;;;;;;0.51;95.77;98778.88;105397;1315;22193;-90
2022/12/01 06:20:08;;;;;;;28.60;26.20;;;;;;;0.54;95.86;98784.14;104864;1329;22103;-89
2022/12/01 06:22:36;;;;;;;29.00;26.40;;;;;;;0.55;95.94;98780.29;105422;1319;22073;-91
2022/12/01 06:25:05;;;;;;;27.30;24.90;;;;;;;0.56;95.66;98781.10;104803;1330;22194;-90
2022/12/01 06:27:33;;;;;;;26.80;24.20;;;;;;;0.53;95.59;98784.67;104864;1330;22204;-87
2022/12/01 06:30:01;;;;;;;27.60;25.00;;;;;;;0.53;95.57;98786.68;105279;1308;22388;-86
2022/12/01 06:32:29;;;;;;;25.80;23.50;;;;;;;0.51;95.90;98786.52;105300;1319;22260;-86
2022/12/01 06:34:57;;;;;;;25.60;23.30;;;;;;;0.55;95.77;98781.04;104704;1330;23093;-83
2022/12/01 06:37:26;;;;;;;26.30;23.90;;;;;;;0.56;95.71;98784.05;105111;1320;22233;-85
2022/12/01 06:39:54;;;;;;;29.40;26.80;;;;;;;0.54;95.87;98782.83;104780;1329;22174;-86
2022/12/01 06:42:22;;;;;;;27.70;24.90;;;;;;;0.52;95.67;98778.44;104834;1330;22355;-87
2022/12/01 06:44:50;;;;;;;26.70;24.30;;;;;;;0.50;95.69;98785.99;104760;1327;22227;-87
2022/12/01 06:47:18;;;;;;;25.40;23.10;;;;;;;0.52;95.86;98789.41;104718;1330;22104;-85
2022/12/01 06:49:46;;;;;;;23.60;21.50;;;;;;;0.55;95.69;98787.39;104874;1330;22966;-85
2022/12/01 06:52:14;;;;;;;26.30;24.10;;;;;;;0.54;95.71;98788.46;104870;1322;22556;-85
2022/12/01 06:54:42;;;;;;;25.90;23.80;;;;;;;0.47;95.41;98787.02;104841;1330;22255;-85
2022/12/01 06:57:10;;;;;;;25.40;23.20;;;;;;;0.41;95.73;98788.97;104836;1329;23015;-86
2022/12/01 06:59:38;;;;;;;24.50;22.40;;;;;;;0.39;95.66;98789.88;104758;1320;22576;-86
2022/12/01 07:02:09;;;;;;;23.70;21.50;;;;;;;0.37;95.68;98788.98;104788;1328;22194;-86
2022/12/01 07:04:37;;;;;;;23.70;21.60;;;;;;;0.34;95.66;98796.38;104710;1330;22218;-86
2022/12/01 07:07:05;;;;;;;26.30;24.00;;;;;;;0.33;95.71;98797.61;104731;1330;22161;-84
2022/12/01 07:09:33;;;;;;;25.50;23.30;;;;;;;0.29;95.88;98798.89;105026;1329;22237;-84
2022/12/01 07:12:01;;;;;;;22.70;20.60;;;;;;;0.26;95.80;98799.25;104992;1329;22235;-85
2022/12/01 07:14:30;;;;;;;22.80;20.50;;;;;;;0.25;95.87;98799.60;104819;1330;22128;-87
2022/12/01 07:16:58;;;;;;;22.30;20.40;;;;;;;0.27;95.93;98802.59;105000;1315;22793;-85
2022/12/01 07:19:26;;;;;;;25.90;23.70;;;;;;;0.27;96.06;98799.92;104785;1330;22172;-86
2022/12/01 07:21:54;;;;;;;29.20;26.80;;;;;;;0.25;96.01;98800.33;104940;1320;157963;-87
2022/12/01 07:24:22;;;;;;;26.10;23.70;;;;;;;0.23;95.99;98801.52;105304;1319;22812;-86
2022/12/01 07:26:50;;;;;;;23.80;21.90;;;;;;;0.23;96.02;98800.59;105285;1311;22843;-85
2022/12/01 07:29:18;;;;;;;25.40;23.20;;;;;;;0.24;95.85;98804.17;105301;1318;22231;-87
2022/12/01 07:31:46;;;;;;;25.90;23.80;;;;;;;0.28;95.94;98810.96;104892;1329;22224;-87
2022/12/01 07:34:14;;;;;;;25.50;23.30;;;;;;;0.30;96.05;98804.60;104722;1330;22256;-88
2022/12/01 07:36:41;;;;;;;25.40;23.20;;;;;;;0.29;96.05;98804.77;104780;1321;22333;-87
2022/12/01 07:39:09;;;;;;;24.10;22.20;;;;;;;0.22;96.07;98804.21;104713;1330;22963;-87
2022/12/01 07:41:37;;;;;;;22.60;20.60;;;;;;;0.22;96.27;98804.63;104730;1330;22164;-86
2022/12/01 07:44:05;;;;;;;24.80;22.60;;;;;;;0.25;96.16;98804.52;104720;1321;22184;-86
2022/12/01 07:46:33;;;;;;;27.60;25.30;;;;;;;0.30;96.16;98808.52;104745;1329;22198;-87
2022/12/01 07:49:04;;;;;;;26.10;23.50;;;;;;;0.35;96.12;98802.90;104739;1329;22265;-87
2022/12/01 07:51:33;;;;;;;27.60;25.20;;;;;;;0.37;96.21;98810.08;104746;1330;22212;-87
2022/12/01 07:54:04;;;;;;;35.00;27.40;;;;;;;0.37;96.23;98810.36;104856;1330;22271;-86
2022/12/01 07:56:32;;;;;;;27.20;24.50;;;;;;;0.37;96.09;98806.33;104735;1330;22289;-84
2022/12/01 07:59:00;;;;;;;24.10;22.00;;;;;;;0.37;96.17;98804.16;105001;1314;22235;-85
2022/12/01 08:01:28;;;;;;;26.30;23.90;;;;;;;0.38;96.09;98802.61;105018;1320;22093;-87
2022/12/01 08:03:57;;;;;;;26.60;23.60;;;;;;;0.41;96.13;98800.73;105363;1319;22076;-87
2022/12/01 08:06:55;;;;;;;26.00;23.80;;;;;;;0.40;96.25;98807.61;104898;1330;22089;-87
2022/12/01 08:09:23;;;;;;;31.00;28.30;;;;;;;0.40;96.37;98807.09;104762;1328;22177;-86
2022/12/01 08:11:51;;;;;;;30.80;28.00;;;;;;;0.39;96.17;98810.22;105259;1320;22241;-86
2022/12/01 08:14:19;;;;;;;27.60;25.00;;;;;;;0.39;96.24;98815.38;104859;1327;22280;-88
2022/12/01 08:16:47;;;;;;;26.80;24.40;;;;;;;0.45;96.23;98809.31;105285;1320;22173;-87
2022/12/01 08:19:16;;;;;;;28.50;26.00;;;;;;;0.45;96.34;98813.63;104763;1325;22119;-87
2022/12/01 08:21:44;;;;;;;26.60;24.20;;;;;;;0.43;96.06;98810.09;104786;1330;22930;-87
2022/12/01 08:24:14;;;;;;;26.20;24.10;;;;;;;0.37;96.09;98810.92;104912;1330;22178;-87
2022/12/01 08:26:42;;;;;;;23.20;21.10;;;;;;;0.31;96.04;98815.36;104777;1329;22227;-88
2022/12/01 08:29:11;;;;;;;23.40;21.50;;;;;;;0.31;96.15;98818.70;104930;1330;22105;-88
2022/12/01 08:31:46;;;;;;;24.50;22.40;;;;;;;0.35;96.21;98817.91;104996;1314;22234;-86
2022/12/01 08:34:14;;;;;;;25.40;23.20;;;;;;;0.36;96.24;98819.67;104886;1329;22176;-85
2022/12/01 08:36:42;;;;;;;27.70;25.40;;;;;;;0.34;96.22;98822.58;105157;1311;22915;-88
2022/12/01 08:39:10;;;;;;;25.30;23.20;;;;;;;0.32;96.06;98820.16;104857;1332;22211;-88
2022/12/01 08:41:38;;;;;;;22.90;21.00;;;;;;;0.32;96.21;98827.88;104747;1329;22933;-88
2022/12/01 08:44:08;;;;;;;25.60;22.00;;;;;;;0.34;96.22;98828.72;104742;1329;22197;-89
2022/12/01 08:46:37;;;;;;;23.80;21.80;;;;;;;0.40;96.31;98831.32;104777;1323;22205;-85
2022/12/01 08:49:05;;;;;;;23.80;21.80;;;;;;;0.44;96.24;98832.55;105309;1311;22790;-86
2022/12/01 08:51:34;;;;;;;26.10;23.70;;;;;;;0.44;96.15;98832.16;105303;1320;22271;-86
2022/12/01 08:54:02;;;;;;;24.40;22.40;;;;;;;0.44;96.04;98832.02;105248;1321;22164;-87
2022/12/01 08:56:34;;;;;;;22.50;20.50;;;;;;;0.47;96.10;98831.50;105244;1315;22264;-86
2022/12/01 08:59:02;;;;;;;23.90;21.80;;;;;;;0.52;96.14;98832.73;104909;1328;22213;-90
2022/12/01 09:01:31;;;;;;;23.50;21.30;;;;;;;0.53;95.90;98831.47;104652;1333;22188;-90
2022/12/01 09:04:04;;;;;;;24.50;22.10;;;;;;;0.52;95.85;98826.83;104779;1331;22201;-90
2022/12/01 09:06:39;;;;;;;21.60;19.70;;;;;;;0.49;95.77;98824.19;104885;1332;22203;-88
2022/12/01 09:09:09;;;;;;;23.60;21.60;;;;;;;0.49;95.79;98826.91;104748;1328;22187;-89
2022/12/01 09:11:38;;;;;;;23.70;20.90;;;;;;;0.53;95.79;98825.34;104732;1333;22175;-89
2022/12/01 09:14:06;;;;;;;23.10;21.00;;;;;;;0.58;95.76;98825.73;104735;1330;22216;-88
2022/12/01 09:16:34;;;;;;;23.90;21.90;;;;;;;0.58;95.49;98825.29;104678;1329;22292;-91
2022/12/01 09:19:03;;;;;;;25.00;22.90;;;;;;;0.55;95.58;98823.77;105132;1322;22077;-89
2022/12/01 09:21:32;;;;;;;23.10;20.80;;;;;;;0.52;95.30;98820.00;104876;1329;22282;-89
2022/12/01 09:24:00;;;;;;;22.90;20.90;;;;;;;0.51;95.42;98819.19;104687;1330;22224;-89
2022/12/01 09:26:29;;;;;;;21.90;20.10;;;;;;;0.53;95.25;98812.98;105157;1318;22940;-90
2022/12/01 09:29:00;;;;;;;21.80;20.00;;;;;;;0.52;95.17;98816.20;105115;1308;22952;-91
2022/12/01 09:31:28;;;;;;;25.40;23.20;;;;;;;0.50;95.05;98814.96;104825;1329;22178;-89
2022/12/01 09:33:59;;;;;;;26.00;23.80;;;;;;;0.49;94.96;98815.45;104732;1325;22265;-88
2022/12/01 09:36:30;;;;;;;23.70;21.60;;;;;;;0.47;95.28;98813.29;104737;1330;22961;-90
2022/12/01 09:38:58;;;;;;;22.20;20.30;;;;;;;0.47;95.05;98807.98;104732;1325;22110;-89
2022/12/01 09:41:29;;;;;;;21.10;19.30;;;;;;;0.46;95.18;98808.45;104737;1330;22279;-88
2022/12/01 09:44:04;;;;;;;23.20;21.00;;;;;;;0.51;95.23;98800.30;104906;1328;22096;-88
2022/12/01 09:46:40;;;;;;;24.30;22.30;;;;;;;0.53;95.06;98797.07;104731;1330;22191;-89
2022/12/01 09:49:17;;;;;;;28.10;25.40;;;;;;;0.51;94.93;98793.73;104655;1329;22256;-90
2022/12/01 09:51:45;;;;;;;37.40;21.60;;;;;;;0.49;95.19;98797.95;104743;1333;22293;-91
2022/12/01 09:54:13;;;;;;;24.20;21.30;;;;;;;0.51;95.11;98796.92;104535;1332;22215;-91
2022/12/01 09:56:46;;;;;;;22.80;20.80;;;;;;;0.54;94.95;98792.45;104835;1328;22189;-90
2022/12/01 09:59:22;;;;;;;24.40;22.30;;;;;;;0.55;94.84;98793.80;105291;1322;22757;-91
2022/12/01 10:01:55;;;;;;;29.60;27.00;;;;;;;0.54;95.02;98794.98;104864;1331;22780;-88
2022/12/01 10:04:34;;;;;;;31.70;29.20;;;;;;;0.54;95.21;98795.28;104991;1322;22169;-90
2022/12/01 10:07:12;;;;;;;27.50;25.10;;;;;;;0.54;94.60;98796.58;104800;1328;22203;-87
2022/12/01 10:09:53;;;;;;;25.70;23.40;;;;;;;0.53;94.85;98797.58;104940;1330;22226;-90
2022/12/01 10:12:26;;;;;;;25.40;23.30;;;;;;;0.56;94.97;98795.55;105405;1306;22191;-89
2022/12/01 10:15:13;;;;;;;28.40;26.00;;;;;;;0.61;94.90;98792.86;104768;1320;22203;-89
2022/12/01 10:17:59;;;;;;;27.10;24.70;;;;;;;0.62;94.71;98791.20;104770;1333;22211;-89
2022/12/01 10:21:02;;;;;;;26.50;23.50;;;;;;;0.58;94.92;98790.80;104826;1329;22216;-90
2022/12/01 10:23:33;;;;;;;28.40;25.80;;;;;;;0.57;94.72;98787.50;104534;1330;22561;-90
2022/12/01 10:26:13;;;;;;;27.30;24.80;;;;;;;0.51;94.49;98790.23;105426;1304;22620;-91
2022/12/01 10:29:09;;;;;;;27.30;24.80;;;;;;;0.49;94.42;98787.98;105415;1304;22258;-92
2022/12/01 10:31:59;;;;;;;29.70;26.90;;;;;;;0.48;94.53;98785.14;104921;1328;22192;-89
2022/12/01 10:34:31;;;;;;;30.40;27.80;;;;;;;0.50;94.81;98782.82;104814;1329;22209;-89
2022/12/01 10:36:59;;;;;;;33.70;30.40;;;;;;;0.51;94.80;98784.27;104809;1330;22184;-92
2022/12/01 10:39:32;;;;;;;29.10;26.40;;;;;;;0.50;94.82;98781.59;105421;1319;22079;-89
2022/12/01 10:42:16;;;;;;;26.30;24.00;;;;;;;0.52;94.50;98777.46;105382;1320;22956;-87
2022/12/01 10:44:44;;;;;;;25.00;22.70;;;;;;;0.50;94.48;98775.84;105099;1327;22273;-92
2022/12/01 10:47:21;;;;;;;26.20;23.80;;;;;;;0.47;94.34;98773.08;104986;1329;22217;-91
2022/12/01 10:49:49;;;;;;;30.20;27.60;;;;;;;0.45;94.27;98767.36;105045;1293;22305;-92
2022/12/01 10:52:35;;;;;;;30.10;27.20;;;;;;;0.41;94.51;98763.11;104842;1327;22178;-90
2022/12/01 10:55:26;;;;;;;30.30;27.20;;;;;;;0.41;94.53;98765.97;105055;1327;22300;-92
2022/12/01 10:57:57;;;;;;;25.00;22.80;;;;;;;0.45;94.44;98765.21;104983;1304;22189;-92
2022/12/01 11:00:34;;;;;;;26.80;24.50;;;;;;;0.44;94.04;98763.39;105357;1312;22208;-91
2022/12/01 11:03:26;;;;;;;25.30;23.10;;;;;;;0.43;94.31;98764.44;104888;1327;22439;-92
2022/12/01 11:05:58;;;;;;;27.20;24.50;;;;;;;0.41;94.09;98764.02;104928;1326;22214;-89
2022/12/01 11:08:51;;;;;;;26.20;23.30;;;;;;;0.37;94.23;98764.02;105491;1318;22245;-91
2022/12/01 11:11:23;;;;;;;25.30;22.90;;;;;;;0.37;93.84;98759.98;105231;1305;22205;-83
2022/12/01 11:13:53;;;;;;;24.20;21.90;;;;;;;0.36;93.99;98757.42;105055;1327;22161;-88
2022/12/01 11:16:38;;;;;;;26.30;24.00;;;;;;;0.40;94.38;98750.91;104913;1327;22269;-90
2022/12/01 11:19:16;;;;;;;28.10;25.50;;;;;;;0.40;94.25;98750.87;104752;1327;22918;-90
2022/12/01 11:21:53;;;;;;;;;;;;;;;0.39;93.88;98751.25;105242;1297;22291;-89
2022/12/01 11:24:41;;;;;;;30.50;27.60;;;;;;;0.31;93.80;98752.19;105269;1313;22235;-89
2022/12/01 11:27:17;;;;;;;26.90;24.40;;;;;;;0.27;93.73;98749.98;105038;1322;22180;-92
2022/12/01 11:29:49;;;;;;;23.50;21.40;;;;;;;0.28;93.95;98747.52;104825;1326;22367;-89
2022/12/01 11:32:27;;;;;;;25.00;23.00;;;;;;;0.31;93.82;98747.42;105385;1319;22196;-91
2022/12/01 11:34:57;;;;;;;24.80;22.50;;;;;;;0.31;93.80;98746.52;104930;1321;22209;-92
2022/12/01 11:37:42;;;;;;;27.70;25.20;;;;;;;0.29;93.64;98747.99;104925;1327;22226;-90
2022/12/01 11:40:30;;;;;;;22.70;20.70;;;;;;;0.26;93.63;98745.70;105140;1319;22162;-89
2022/12/01 11:43:01;;;;;;;20.90;19.00;;;;;;;0.26;93.69;98742.77;104980;1321;22214;-90
2022/12/01 11:45:38;;;;;;;20.20;18.40;;;;;;;0.28;93.63;98742.34;104879;1327;22189;-90